Terminal Aerodrome Forecast
Issued by NWS Billings, MT

Home | Current Version | Previous Version | Graphics & Text | Print | Product List | Glossary On
Versions: 1 2 3 4 5 6 7 8 9 10 11 12 13 14 15 16 17 18 19 20 21 22 23 24 25 26 27 28 29 30 31 32 33 34 35 36 37 38 39 40
696
FTUS45 KBYZ 311121
TAFMLS
TAF
KMLS 311121Z 3112/0112 29025G40KT 5SM -SHRA BKN020 OVC040
     FM312000 32015G30KT 6SM -SHRA SCT020 OVC040
     FM010100 32018KT P6SM SCT050 SCT200=

USA.gov is the U.S. government's official web portal to all federal, state and local government web resources and services.